Time;durP1;ratioP1;P1;durP2;ratioP2;P2;SDS_P1;SDS_P2;PMS_P1;PMS_P2;Temp;Humidity;BMP_temperature;BMP_pressure;BME280_temperature;BME280_humidity;BME280_pressure;Samples;Min_cycle;Max_cycle;Signal;HPM_P1;HPM_P2
2023/05/19 00:02:04;;;;;;;13.38;4.65;;;12.00;99.90;;;;;;5056293;28;20048;-61
2023/05/19 00:04:32;;;;;;;10.02;3.53;;;12.00;99.90;;;;;;5070031;28;20055;-61
2023/05/19 00:06:59;;;;;;;9.85;4.15;;;12.00;99.90;;;;;;5070642;28;20453;-61
2023/05/19 00:09:26;;;;;;;11.90;4.38;;;12.00;99.90;;;;;;5044274;28;20075;-60
2023/05/19 00:11:53;;;;;;;10.80;4.28;;;12.00;99.90;;;;;;5071505;28;20044;-61
2023/05/19 00:14:20;;;;;;;10.48;5.00;;;12.00;99.90;;;;;;5071028;28;20568;-60
2023/05/19 00:16:47;;;;;;;11.98;5.22;;;12.00;99.90;;;;;;5070747;28;20044;-60
2023/05/19 00:19:15;;;;;;;10.18;3.92;;;12.10;99.90;;;;;;5070530;28;20106;-60
2023/05/19 00:21:42;;;;;;;16.23;5.00;;;12.10;99.90;;;;;;5070104;28;20136;-61
2023/05/19 00:24:09;;;;;;;11.80;4.88;;;12.00;99.90;;;;;;5070388;28;20041;-60
2023/05/19 00:26:36;;;;;;;16.83;4.75;;;11.90;99.90;;;;;;5069920;28;20089;-60
2023/05/19 00:29:05;;;;;;;13.90;4.03;;;11.80;99.90;;;;;;5070273;28;20127;-61
2023/05/19 00:31:35;;;;;;;13.57;4.40;;;11.80;99.90;;;;;;5070475;28;20067;-61
2023/05/19 00:34:02;;;;;;;10.60;4.47;;;11.70;99.90;;;;;;5064401;28;20091;-61
2023/05/19 00:36:29;;;;;;;10.82;4.20;;;11.80;99.90;;;;;;5070632;28;20527;-61
2023/05/19 00:38:56;;;;;;;8.73;4.10;;;11.70;99.90;;;;;;5070106;28;20048;-61
2023/05/19 00:41:23;;;;;;;10.15;3.80;;;11.80;99.90;;;;;;5069091;28;20098;-60
2023/05/19 00:43:50;;;;;;;10.80;4.20;;;11.80;99.90;;;;;;5071043;28;20052;-60
2023/05/19 00:46:18;;;;;;;12.05;4.43;;;11.80;99.90;;;;;;5069662;28;20036;-61
2023/05/19 00:48:45;;;;;;;10.23;4.30;;;11.70;99.90;;;;;;5069451;28;20499;-61
2023/05/19 00:51:13;;;;;;;7.75;3.70;;;11.60;99.90;;;;;;5070254;28;20057;-61
2023/05/19 00:53:40;;;;;;;12.32;3.55;;;11.60;99.90;;;;;;5057962;28;20690;-61
2023/05/19 00:56:07;;;;;;;6.88;3.75;;;11.60;99.90;;;;;;5069797;28;20344;-61
2023/05/19 00:58:33;;;;;;;11.07;3.92;;;11.50;99.90;;;;;;5080584;28;20045;-62
2023/05/19 01:01:01;;;;;;;5.80;2.92;;;11.60;99.90;;;;;;5056656;28;20048;-62
2023/05/19 01:03:36;;;;;;;8.57;2.80;;;11.60;99.90;;;;;;5069797;28;20126;-61
2023/05/19 01:06:06;;;;;;;11.80;3.30;;;11.60;99.90;;;;;;5073210;28;20048;-61
2023/05/19 01:08:33;;;;;;;8.23;4.28;;;11.60;99.90;;;;;;5056683;28;20055;-60
2023/05/19 01:11:00;;;;;;;8.55;2.97;;;11.60;99.90;;;;;;4718070;28;10000512;-61
2023/05/19 01:13:27;;;;;;;10.88;3.45;;;11.70;99.90;;;;;;5066429;28;20168;-61
2023/05/19 01:16:02;;;;;;;5.97;3.13;;;11.60;99.90;;;;;;5053170;28;20044;-61
2023/05/19 01:18:45;;;;;;;6.35;2.75;;;11.70;99.90;;;;;;5064683;28;20048;-61
2023/05/19 01:21:22;;;;;;;9.02;3.67;;;11.60;99.90;;;;;;5041351;28;20080;-61
2023/05/19 01:23:55;;;;;;;11.88;4.10;;;11.60;99.90;;;;;;5064514;28;20507;-61
2023/05/19 01:26:42;;;;;;;12.73;3.20;;;11.50;99.90;;;;;;5065469;28;20059;-61
2023/05/19 01:29:21;;;;;;;10.68;3.72;;;11.50;99.90;;;;;;5061880;28;20055;-62
2023/05/19 01:31:51;;;;;;;6.57;3.38;;;11.40;99.90;;;;;;5069831;28;20048;-61
2023/05/19 01:34:18;;;;;;;17.45;3.88;;;11.40;99.90;;;;;;5047278;28;20127;-63
2023/05/19 01:36:47;;;;;;;12.48;4.53;;;11.30;99.90;;;;;;5069847;28;20550;-61
2023/05/19 01:39:14;;;;;;;11.23;3.25;;;11.40;99.90;;;;;;5032132;28;20083;-61
2023/05/19 01:41:41;;;;;;;13.93;4.75;;;11.40;99.90;;;;;;5069801;28;20102;-61
2023/05/19 01:44:08;;;;;;;11.48;3.35;;;11.30;99.90;;;;;;5064207;28;20082;-60
2023/05/19 01:46:35;;;;;;;11.43;4.57;;;11.30;99.90;;;;;;5038253;28;20080;-60
2023/05/19 01:49:02;;;;;;;10.70;3.50;;;11.30;99.90;;;;;;5069174;28;20044;-62
2023/05/19 01:51:30;;;;;;;10.32;3.58;;;11.30;99.90;;;;;;5057612;28;20074;-61
2023/05/19 01:53:57;;;;;;;9.25;4.72;;;11.30;99.90;;;;;;5035173;28;20048;-61
2023/05/19 01:56:47;;;;;;;9.45;3.75;;;11.40;99.90;;;;;;5069653;28;20503;-61
2023/05/19 01:59:48;;;;;;;12.23;3.42;;;11.50;99.90;;;;;;5040337;28;20078;-61
2023/05/19 02:02:40;;;;;;;8.35;3.88;;;11.40;99.90;;;;;;5029932;28;20076;-63
2023/05/19 02:05:37;;;;;;;7.40;3.20;;;11.40;99.90;;;;;;5051013;28;20114;-61
2023/05/19 02:08:24;;;;;;;9.98;3.70;;;11.40;99.90;;;;;;5057241;28;20082;-61
2023/05/19 02:10:55;;;;;;;18.95;3.90;;;11.30;99.90;;;;;;5063369;28;20075;-60
2023/05/19 02:13:23;;;;;;;6.90;2.92;;;11.30;99.90;;;;;;5054789;28;20052;-60
2023/05/19 02:15:49;;;;;;;7.25;3.80;;;11.30;99.90;;;;;;5054051;28;20052;-61
2023/05/19 02:18:19;;;;;;;5.45;3.67;;;11.20;99.90;;;;;;5046001;28;20048;-60
2023/05/19 02:20:45;;;;;;;11.15;3.70;;;11.10;99.90;;;;;;5065174;28;20044;-61
2023/05/19 02:23:12;;;;;;;9.30;3.75;;;11.10;99.90;;;;;;5068606;28;20044;-60
2023/05/19 02:25:39;;;;;;;9.00;3.63;;;11.10;99.90;;;;;;5067269;28;20049;-60
2023/05/19 02:28:06;;;;;;;9.80;3.58;;;11.10;99.90;;;;;;5068609;28;20048;-60
2023/05/19 02:30:33;;;;;;;27.02;5.32;;;11.10;99.90;;;;;;5067745;28;20113;-60
2023/05/19 02:33:00;;;;;;;12.70;3.80;;;11.10;99.90;;;;;;5067417;28;20048;-60
2023/05/19 02:35:27;;;;;;;11.93;4.30;;;11.20;99.90;;;;;;5068244;28;20417;-60
2023/05/19 02:37:53;;;;;;;9.93;3.47;;;11.20;99.90;;;;;;5069083;28;20059;-60
2023/05/19 02:40:20;;;;;;;8.10;4.22;;;11.20;99.90;;;;;;5068310;28;20052;-61
2023/05/19 02:42:47;;;;;;;8.43;4.10;;;11.10;99.90;;;;;;5068254;28;20076;-60
2023/05/19 02:45:14;;;;;;;11.05;4.22;;;10.90;99.90;;;;;;5068216;28;20049;-61
2023/05/19 02:47:40;;;;;;;7.40;3.13;;;10.70;99.90;;;;;;5068344;28;20044;-61
2023/05/19 02:50:08;;;;;;;11.45;4.55;;;10.70;99.90;;;;;;5068049;28;20052;-61
2023/05/19 02:52:34;;;;;;;9.45;3.92;;;10.70;99.90;;;;;;5068218;28;20041;-60
2023/05/19 02:55:01;;;;;;;14.95;3.70;;;10.80;99.90;;;;;;5068159;28;20105;-61
2023/05/19 02:57:30;;;;;;;9.48;4.18;;;10.80;99.90;;;;;;5066971;28;20083;-60
2023/05/19 02:59:57;;;;;;;10.55;5.13;;;10.90;99.90;;;;;;5067606;28;20498;-61
2023/05/19 03:02:23;;;;;;;8.75;5.55;;;10.80;99.90;;;;;;5067868;28;20049;-61
2023/05/19 03:04:50;;;;;;;15.45;5.55;;;10.80;99.90;;;;;;5068207;28;20045;-61
2023/05/19 03:07:17;;;;;;;11.63;4.57;;;10.70;99.90;;;;;;5068036;28;20048;-61
2023/05/19 03:09:44;;;;;;;14.48;4.80;;;10.70;99.90;;;;;;5067833;28;20131;-61
2023/05/19 03:12:11;;;;;;;13.32;4.45;;;10.70;99.90;;;;;;5068033;28;20048;-61
2023/05/19 03:14:37;;;;;;;9.00;4.60;;;10.70;99.90;;;;;;5067887;28;20040;-61
2023/05/19 03:17:06;;;;;;;9.23;4.82;;;10.80;99.90;;;;;;5068168;28;20453;-61
2023/05/19 03:19:33;;;;;;;15.80;4.32;;;10.80;99.90;;;;;;5067969;28;20041;-61
2023/05/19 03:22:00;;;;;;;17.02;6.53;;;10.90;99.90;;;;;;5067683;28;20041;-61
2023/05/19 03:24:27;;;;;;;12.15;4.28;;;10.80;99.90;;;;;;5067954;28;20082;-61
2023/05/19 03:26:54;;;;;;;10.50;4.65;;;10.80;99.90;;;;;;5067804;28;20045;-61
2023/05/19 03:29:21;;;;;;;12.88;5.03;;;10.70;99.90;;;;;;5068065;28;20056;-61
2023/05/19 03:31:48;;;;;;;11.85;4.70;;;10.80;99.90;;;;;;5066547;28;20036;-60
2023/05/19 03:34:14;;;;;;;10.82;4.95;;;10.80;99.90;;;;;;5067427;28;20139;-61
2023/05/19 03:36:41;;;;;;;8.85;5.20;;;10.70;99.90;;;;;;5068873;28;20057;-61
2023/05/19 03:39:08;;;;;;;10.82;4.97;;;10.70;99.90;;;;;;5071785;28;20052;-61
2023/05/19 03:41:35;;;;;;;9.75;5.50;;;10.70;99.90;;;;;;5071282;28;20044;-61
2023/05/19 03:44:02;;;;;;;11.07;6.50;;;10.60;99.90;;;;;;5072419;28;20422;-61
2023/05/19 03:46:28;;;;;;;11.45;5.30;;;10.60;99.90;;;;;;5072087;28;20527;-61
2023/05/19 03:48:55;;;;;;;16.95;4.70;;;10.60;99.90;;;;;;5071181;28;20098;-61
2023/05/19 03:51:22;;;;;;;7.07;4.68;;;10.70;99.90;;;;;;5071581;28;20086;-61
2023/05/19 03:53:49;;;;;;;24.60;4.97;;;10.70;99.90;;;;;;5071076;28;20109;-61
2023/05/19 03:56:17;;;;;;;9.30;5.10;;;10.60;99.90;;;;;;5071066;28;20047;-61
2023/05/19 03:58:45;;;;;;;17.52;5.95;;;10.60;99.90;;;;;;5077055;28;20066;-61
2023/05/19 04:01:12;;;;;;;9.93;4.97;;;10.60;99.90;;;;;;5071769;28;20040;-62
2023/05/19 04:03:39;;;;;;;10.05;5.53;;;10.60;99.90;;;;;;5071739;28;20067;-61
2023/05/19 04:06:06;;;;;;;14.70;5.82;;;10.50;99.90;;;;;;5068471;28;20055;-62
2023/05/19 04:08:33;;;;;;;16.33;5.13;;;10.60;99.90;;;;;;5068755;28;20114;-62
2023/05/19 04:11:00;;;;;;;18.65;7.03;;;10.60;99.90;;;;;;5070833;28;20053;-62
2023/05/19 04:13:27;;;;;;;13.82;5.57;;;10.50;99.90;;;;;;5071618;28;20049;-62
2023/05/19 04:15:54;;;;;;;14.02;5.72;;;10.50;99.90;;;;;;5071611;28;20064;-62
2023/05/19 04:18:21;;;;;;;10.60;5.85;;;10.50;99.90;;;;;;5070060;28;20080;-61
2023/05/19 04:20:47;;;;;;;9.38;5.30;;;10.50;99.90;;;;;;5071328;28;20067;-60
2023/05/19 04:23:14;;;;;;;11.90;5.68;;;10.50;99.90;;;;;;5070547;28;20415;-61
2023/05/19 04:25:41;;;;;;;16.38;6.45;;;10.50;99.90;;;;;;5071839;28;20044;-61
2023/05/19 04:28:08;;;;;;;12.23;5.65;;;10.60;99.90;;;;;;5059375;28;20044;-61
2023/05/19 04:30:35;;;;;;;10.48;4.65;;;10.50;99.90;;;;;;5070515;28;20048;-61
2023/05/19 04:33:03;;;;;;;13.93;5.28;;;10.60;99.90;;;;;;5070410;28;20037;-61
2023/05/19 04:35:30;;;;;;;11.52;4.72;;;10.50;99.90;;;;;;5070909;28;20408;-61
2023/05/19 04:37:57;;;;;;;11.32;5.30;;;10.60;99.90;;;;;;5070719;28;20037;-61
2023/05/19 04:40:24;;;;;;;9.82;4.88;;;10.60;99.90;;;;;;5070901;28;20047;-63
2023/05/19 04:42:51;;;;;;;13.85;6.20;;;10.60;99.90;;;;;;5057936;28;20046;-61
2023/05/19 04:45:18;;;;;;;13.85;5.05;;;10.70;99.90;;;;;;5070947;28;20040;-61
2023/05/19 04:47:48;;;;;;;10.63;6.82;;;10.70;99.90;;;;;;5069723;28;20571;-60
2023/05/19 04:50:15;;;;;;;12.07;5.72;;;10.80;99.90;;;;;;5070360;28;20048;-60
2023/05/19 04:52:44;;;;;;;15.50;5.75;;;10.80;99.90;;;;;;5070153;28;20068;-60
2023/05/19 04:55:11;;;;;;;11.55;5.32;;;10.80;99.90;;;;;;5070707;28;20053;-61
2023/05/19 04:57:39;;;;;;;20.95;7.30;;;10.70;99.90;;;;;;5070876;28;20055;-62
2023/05/19 05:00:12;;;;;;;13.07;6.60;;;10.70;99.90;;;;;;5070389;28;20045;-61
2023/05/19 05:02:41;;;;;;;14.13;5.68;;;10.80;99.90;;;;;;5069912;28;20056;-60
2023/05/19 05:05:08;;;;;;;21.25;6.38;;;10.90;99.90;;;;;;5069461;28;20044;-61
2023/05/19 05:07:35;;;;;;;11.32;5.40;;;10.90;99.90;;;;;;5076383;28;20125;-60
2023/05/19 05:10:02;;;;;;;13.73;5.57;;;10.90;99.90;;;;;;5069045;28;20495;-60
2023/05/19 05:12:30;;;;;;;14.20;6.28;;;11.00;99.90;;;;;;5069916;28;20052;-60
2023/05/19 05:14:57;;;;;;;16.05;7.90;;;11.10;99.90;;;;;;5069268;28;20101;-60
2023/05/19 05:17:25;;;;;;;13.40;5.97;;;11.20;99.90;;;;;;5069611;28;20045;-60
2023/05/19 05:19:53;;;;;;;10.27;5.68;;;11.20;99.90;;;;;;5070008;28;20113;-60
2023/05/19 05:22:20;;;;;;;9.85;5.85;;;11.20;99.90;;;;;;5069777;28;20055;-61
2023/05/19 05:24:47;;;;;;;14.82;6.30;;;11.30;99.90;;;;;;5070047;28;20048;-60
2023/05/19 05:27:14;;;;;;;12.32;6.35;;;11.30;99.90;;;;;;5069717;28;20045;-60
2023/05/19 05:29:41;;;;;;;13.90;6.22;;;11.40;99.90;;;;;;5069551;28;20048;-62
2023/05/19 05:32:07;;;;;;;14.23;5.60;;;11.40;99.90;;;;;;5068695;28;20045;-61
2023/05/19 05:34:36;;;;;;;9.10;5.78;;;11.50;99.90;;;;;;5056882;28;20048;-60
2023/05/19 05:37:03;;;;;;;15.85;6.20;;;11.40;99.90;;;;;;5068884;28;20040;-60
2023/05/19 05:39:30;;;;;;;18.60;6.28;;;11.50;99.90;;;;;;5062982;28;20445;-61
2023/05/19 05:41:57;;;;;;;15.68;5.38;;;11.50;99.90;;;;;;5080789;28;20052;-60
2023/05/19 05:44:24;;;;;;;17.70;6.97;;;11.60;99.90;;;;;;5076088;28;20798;-63
2023/05/19 05:46:51;;;;;;;15.20;4.88;;;11.50;99.90;;;;;;5075765;28;20068;-62
2023/05/19 05:49:18;;;;;;;17.90;4.75;;;11.60;99.90;;;;;;5072871;28;20044;-60
2023/05/19 05:51:45;;;;;;;13.88;4.28;;;11.60;99.90;;;;;;5071310;28;20044;-61
2023/05/19 05:54:30;;;;;;;24.42;5.80;;;11.60;99.90;;;;;;5068845;28;20055;-61
2023/05/19 05:56:57;;;;;;;14.18;5.15;;;11.60;99.90;;;;;;5068826;28;20098;-62
2023/05/19 05:59:24;;;;;;;28.38;7.82;;;11.70;99.90;;;;;;5068547;28;20462;-60
2023/05/19 06:01:51;;;;;;;13.00;5.60;;;11.80;99.90;;;;;;5068614;28;20052;-62
2023/05/19 06:04:19;;;;;;;20.27;5.53;;;11.90;99.90;;;;;;5069510;28;20048;-63
2023/05/19 06:06:46;;;;;;;19.98;5.40;;;11.80;99.90;;;;;;5069018;28;20060;-62
2023/05/19 06:09:12;;;;;;;36.13;6.68;;;12.00;99.90;;;;;;5069008;28;20556;-61
2023/05/19 06:11:39;;;;;;;16.00;5.72;;;12.00;99.90;;;;;;5069511;28;20044;-60
2023/05/19 06:14:06;;;;;;;23.73;7.22;;;12.00;99.90;;;;;;5070172;28;20044;-60
2023/05/19 06:16:33;;;;;;;25.92;5.88;;;12.00;99.90;;;;;;5069158;28;20090;-62
2023/05/19 06:19:00;;;;;;;14.00;5.30;;;12.10;99.90;;;;;;5063759;28;20048;-60
2023/05/19 06:21:27;;;;;;;12.23;5.50;;;12.10;99.90;;;;;;5069699;28;20041;-63
2023/05/19 06:23:53;;;;;;;21.95;6.68;;;12.20;99.90;;;;;;5068865;28;20494;-61
2023/05/19 06:26:20;;;;;;;10.18;5.22;;;12.20;99.90;;;;;;5068714;28;20052;-62
2023/05/19 06:28:47;;;;;;;12.07;4.88;;;12.30;99.90;;;;;;5068127;28;20053;-61
2023/05/19 06:31:15;;;;;;;11.55;5.43;;;12.30;99.90;;;;;;5070836;28;20074;-62
2023/05/19 06:33:42;;;;;;;13.60;5.30;;;12.40;99.90;;;;;;5068003;28;20422;-61
2023/05/19 06:36:09;;;;;;;20.77;6.50;;;12.40;99.90;;;;;;5068448;28;20114;-60
2023/05/19 06:38:36;;;;;;;16.80;6.03;;;12.30;99.90;;;;;;5067808;28;20129;-62
2023/05/19 06:41:03;;;;;;;16.83;5.97;;;12.20;99.90;;;;;;5067810;28;20052;-62
2023/05/19 06:43:29;;;;;;;17.30;5.53;;;12.20;99.90;;;;;;5067690;28;20079;-68
2023/05/19 06:45:56;;;;;;;13.80;6.32;;;12.30;99.90;;;;;;5068022;28;20507;-62
2023/05/19 06:48:23;;;;;;;16.23;5.75;;;12.30;99.90;;;;;;5067422;28;20052;-60
2023/05/19 06:50:50;;;;;;;14.75;5.38;;;12.40;99.90;;;;;;5067755;28;20078;-61
2023/05/19 06:53:18;;;;;;;15.38;5.90;;;12.50;99.90;;;;;;5067559;28;20083;-61
2023/05/19 06:55:45;;;;;;;12.25;5.45;;;12.60;99.90;;;;;;5055370;28;20706;-62
2023/05/19 06:58:25;;;;;;;27.98;7.22;;;12.70;99.90;;;;;;5067611;28;20055;-61
2023/05/19 07:00:52;;;;;;;31.50;8.20;;;12.70;99.90;;;;;;5069269;28;20548;-62
2023/05/19 07:03:19;;;;;;;13.70;5.97;;;12.80;99.90;;;;;;5059741;28;20040;-60
2023/05/19 07:05:46;;;;;;;12.73;5.32;;;12.90;99.90;;;;;;5067360;28;20048;-62
2023/05/19 07:08:13;;;;;;;16.23;5.40;;;13.00;99.90;;;;;;5067223;28;20049;-61
2023/05/19 07:10:40;;;;;;;22.73;7.25;;;13.10;99.90;;;;;;5067118;28;20078;-62
2023/05/19 07:13:06;;;;;;;19.95;5.97;;;13.10;99.90;;;;;;5067121;28;20036;-62
2023/05/19 07:15:33;;;;;;;30.42;8.95;;;13.10;99.90;;;;;;5066924;28;20044;-62
2023/05/19 07:18:00;;;;;;;32.67;7.90;;;13.10;99.90;;;;;;5067172;28;20044;-60
2023/05/19 07:20:27;;;;;;;25.63;7.50;;;13.20;99.90;;;;;;5066475;28;20128;-61
2023/05/19 07:22:54;;;;;;;17.65;5.97;;;13.20;99.90;;;;;;5067319;28;20048;-61
2023/05/19 07:25:20;;;;;;;13.35;5.10;;;13.10;99.90;;;;;;5066952;28;20044;-61
2023/05/19 07:27:47;;;;;;;15.45;6.15;;;13.20;99.90;;;;;;5066204;28;20067;-61
2023/05/19 07:30:14;;;;;;;15.35;5.68;;;13.30;99.90;;;;;;5066398;28;20080;-61
2023/05/19 07:32:41;;;;;;;18.95;5.82;;;13.40;99.90;;;;;;5067200;28;20045;-61
2023/05/19 07:35:08;;;;;;;12.20;6.15;;;13.40;99.90;;;;;;5066523;28;20428;-61
2023/05/19 07:37:35;;;;;;;20.02;7.50;;;13.50;99.90;;;;;;5067242;28;20045;-60
2023/05/19 07:40:01;;;;;;;13.88;5.07;;;13.50;99.90;;;;;;5067141;28;20044;-61
2023/05/19 07:42:28;;;;;;;27.90;8.55;;;13.50;99.90;;;;;;5067062;28;20048;-61
2023/05/19 07:44:55;;;;;;;29.65;7.47;;;13.60;99.90;;;;;;5066747;28;20045;-61
2023/05/19 07:47:22;;;;;;;18.70;7.03;;;13.60;99.90;;;;;;5066919;28;20106;-60
2023/05/19 07:49:50;;;;;;;28.10;8.43;;;13.60;99.90;;;;;;5065768;28;20060;-62
2023/05/19 07:52:20;;;;;;;18.80;7.13;;;13.60;99.90;;;;;;5067046;28;20044;-61
2023/05/19 07:54:47;;;;;;;19.02;7.47;;;13.70;99.90;;;;;;5066164;28;20052;-61
2023/05/19 07:57:14;;;;;;;11.80;6.15;;;13.70;99.90;;;;;;5066233;28;20044;-62
2023/05/19 07:59:41;;;;;;;20.35;6.70;;;13.80;99.90;;;;;;5066276;28;20049;-62
2023/05/19 08:02:08;;;;;;;18.95;7.10;;;13.90;99.90;;;;;;5060971;28;20098;-61
2023/05/19 08:04:35;;;;;;;16.00;6.88;;;13.90;99.90;;;;;;5054124;28;20049;-61
2023/05/19 08:07:02;;;;;;;15.18;6.53;;;13.90;99.90;;;;;;5066951;28;20048;-60
2023/05/19 08:09:29;;;;;;;14.70;6.13;;;13.90;99.90;;;;;;5067075;28;20049;-61
2023/05/19 08:11:56;;;;;;;14.75;6.45;;;13.80;99.90;;;;;;5066716;28;20076;-61
2023/05/19 08:14:23;;;;;;;11.18;6.15;;;13.70;99.90;;;;;;5061931;28;20056;-61
2023/05/19 08:16:50;;;;;;;14.07;6.20;;;13.70;99.90;;;;;;5066750;28;20049;-62
2023/05/19 08:19:17;;;;;;;19.02;7.03;;;13.80;99.90;;;;;;5067288;28;20076;-61
2023/05/19 08:21:44;;;;;;;19.90;7.13;;;14.00;99.90;;;;;;5065827;28;20052;-61
2023/05/19 08:24:11;;;;;;;15.32;7.05;;;14.10;99.90;;;;;;5071453;28;20085;-61
2023/05/19 08:26:38;;;;;;;19.52;10.57;;;14.20;99.90;;;;;;5070666;28;20045;-61
2023/05/19 08:29:04;;;;;;;18.67;7.68;;;14.40;99.90;;;;;;5059702;28;20049;-61
2023/05/19 08:31:32;;;;;;;21.92;8.55;;;14.50;99.90;;;;;;5070300;28;20406;-61
2023/05/19 08:33:58;;;;;;;20.88;8.48;;;14.60;99.90;;;;;;5070859;28;20135;-61
2023/05/19 08:36:26;;;;;;;23.98;9.05;;;14.60;99.90;;;;;;5059047;28;20491;-60
2023/05/19 08:38:53;;;;;;;14.02;7.93;;;14.50;99.90;;;;;;5070920;28;20097;-62
2023/05/19 08:41:20;;;;;;;29.15;11.60;;;14.50;99.90;;;;;;5070618;28;20057;-61
2023/05/19 08:43:47;;;;;;;14.95;9.10;;;14.60;99.90;;;;;;5070541;28;20049;-61
2023/05/19 08:46:15;;;;;;;17.48;7.63;;;14.70;99.90;;;;;;5070701;28;20102;-60
2023/05/19 08:48:43;;;;;;;14.02;6.97;;;14.70;99.90;;;;;;5073425;28;20083;-61
2023/05/19 08:51:10;;;;;;;29.20;9.18;;;14.60;99.90;;;;;;5051303;28;20558;-60
2023/05/19 08:53:39;;;;;;;14.57;7.00;;;14.60;99.90;;;;;;5070380;28;20052;-62
2023/05/19 08:56:15;;;;;;;21.50;7.20;;;14.60;99.90;;;;;;5082533;28;20047;-61
2023/05/19 08:58:42;;;;;;;16.88;7.10;;;14.50;99.90;;;;;;5064298;28;20045;-62
2023/05/19 09:01:12;;;;;;;30.55;9.10;;;14.50;99.90;;;;;;5066369;28;20068;-61
2023/05/19 09:03:39;;;;;;;21.02;8.23;;;14.40;99.90;;;;;;5069972;28;20040;-61
2023/05/19 09:06:07;;;;;;;22.65;7.80;;;14.40;99.90;;;;;;5081328;28;20075;-61
2023/05/19 09:08:36;;;;;;;17.83;7.53;;;14.40;99.90;;;;;;5059071;28;20041;-62
2023/05/19 09:11:02;;;;;;;10.98;7.40;;;14.50;99.90;;;;;;5070718;28;20052;-61
2023/05/19 09:13:29;;;;;;;22.80;6.22;;;14.40;99.90;;;;;;5069930;28;20053;-60
2023/05/19 09:15:56;;;;;;;14.80;6.45;;;14.40;99.90;;;;;;5070282;28;20052;-60
2023/05/19 09:18:26;;;;;;;17.30;7.15;;;14.40;99.90;;;;;;5069358;28;20556;-60
2023/05/19 09:21:04;;;;;;;13.20;4.78;;;14.50;99.90;;;;;;5070227;28;20114;-61
2023/05/19 09:23:34;;;;;;;10.30;4.30;;;14.50;99.90;;;;;;5069668;28;20072;-62
2023/05/19 09:26:05;;;;;;;10.25;4.07;;;14.40;99.90;;;;;;5031292;28;20110;-60
2023/05/19 09:28:34;;;;;;;15.40;4.88;;;14.60;99.90;;;;;;5069517;28;20040;-61
2023/05/19 09:31:06;;;;;;;9.32;4.35;;;14.60;99.90;;;;;;5070028;28;20102;-61
2023/05/19 09:33:35;;;;;;;11.18;4.28;;;14.50;99.90;;;;;;5059410;28;20044;-60
2023/05/19 09:36:04;;;;;;;21.85;6.18;;;14.60;99.90;;;;;;5069699;28;20075;-60
2023/05/19 09:38:31;;;;;;;20.45;6.45;;;14.60;99.90;;;;;;5069537;28;20078;-61
2023/05/19 09:40:58;;;;;;;22.20;6.63;;;14.70;99.90;;;;;;5069863;28;20105;-61
2023/05/19 09:43:33;;;;;;;18.77;4.75;;;14.80;99.90;;;;;;5069658;28;20138;-60
2023/05/19 09:46:03;;;;;;;15.40;4.75;;;14.90;99.90;;;;;;5072595;28;20715;-61
2023/05/19 09:48:30;;;;;;;17.45;7.13;;;14.80;99.90;;;;;;5069132;28;20045;-61
2023/05/19 09:50:58;;;;;;;35.13;6.65;;;14.80;99.90;;;;;;5069064;28;20102;-61
2023/05/19 09:53:25;;;;;;;23.13;6.47;;;14.80;99.90;;;;;;5066685;28;20575;-61
2023/05/19 09:55:59;;;;;;;9.93;4.57;;;14.80;99.90;;;;;;5072362;28;20053;-60
2023/05/19 09:58:25;;;;;;;12.60;3.97;;;14.70;99.90;;;;;;5048761;28;20091;-62
2023/05/19 10:00:53;;;;;;;19.23;3.88;;;14.80;99.90;;;;;;5068705;28;20080;-62
2023/05/19 10:03:24;;;;;;;14.98;3.20;;;14.80;99.90;;;;;;5053833;28;20106;-61
2023/05/19 10:05:51;;;;;;;23.05;4.60;;;14.70;99.90;;;;;;5045370;28;20049;-62
2023/05/19 10:08:18;;;;;;;17.15;3.67;;;14.70;99.90;;;;;;5047701;28;20130;-62
2023/05/19 10:10:45;;;;;;;14.18;5.20;;;14.70;99.90;;;;;;5047821;28;20146;-62
2023/05/19 10:13:12;;;;;;;9.55;4.07;;;14.60;99.90;;;;;;5048886;28;20048;-61
2023/05/19 10:15:44;;;;;;;17.05;5.85;;;14.60;99.90;;;;;;5048953;28;20098;-60
2023/05/19 10:18:25;;;;;;;11.75;4.18;;;14.60;99.90;;;;;;5048578;28;20127;-61
2023/05/19 10:20:52;;;;;;;6.80;3.83;;;14.60;99.90;;;;;;5048658;28;20041;-61
2023/05/19 10:23:19;;;;;;;19.42;5.28;;;14.70;99.90;;;;;;5027840;28;20045;-61
2023/05/19 10:25:46;;;;;;;17.85;5.07;;;14.80;99.90;;;;;;5048076;28;20253;-63
2023/05/19 10:28:15;;;;;;;11.05;4.70;;;14.90;99.90;;;;;;5031306;28;20436;-62
2023/05/19 10:30:46;;;;;;;13.93;4.93;;;14.90;99.90;;;;;;5047037;28;20044;-61
2023/05/19 10:33:15;;;;;;;11.68;4.63;;;14.90;99.90;;;;;;5013683;28;20083;-61
2023/05/19 10:36:07;;;;;;;13.10;4.75;;;14.90;99.90;;;;;;5047279;28;20070;-62
2023/05/19 10:38:44;;;;;;;18.42;4.80;;;15.00;99.90;;;;;;5040563;28;20049;-61
2023/05/19 10:41:40;;;;;;;21.33;5.88;;;15.10;99.90;;;;;;5047139;28;20041;-61
2023/05/19 10:44:45;;;;;;;12.50;4.45;;;15.20;99.90;;;;;;5010594;28;20549;-60
2023/05/19 10:47:12;;;;;;;11.07;4.20;;;15.20;99.90;;;;;;5018956;28;20056;-61
2023/05/19 10:49:39;;;;;;;12.60;3.93;;;15.30;99.90;;;;;;4696280;28;9999887;-60
2023/05/19 10:52:24;;;;;;;10.43;3.90;;;15.30;99.90;;;;;;5049883;28;20053;-60
2023/05/19 10:54:53;;;;;;;16.30;4.85;;;15.40;99.90;;;;;;5051633;28;20056;-62
2023/05/19 10:57:27;;;;;;;12.60;4.03;;;15.50;99.90;;;;;;5047856;28;20048;-61
2023/05/19 10:59:55;;;;;;;11.73;4.32;;;15.50;99.90;;;;;;5045250;28;20155;-60
2023/05/19 11:02:40;;;;;;;13.02;5.45;;;15.60;99.90;;;;;;5044931;28;20041;-60
2023/05/19 11:05:13;;;;;;;14.27;4.70;;;15.70;99.90;;;;;;5034186;28;20095;-62
2023/05/19 11:07:42;;;;;;;14.48;5.18;;;15.70;99.90;;;;;;5032340;28;20077;-62
2023/05/19 11:10:09;;;;;;;13.48;4.03;;;15.70;99.90;;;;;;5059178;28;20051;-60
2023/05/19 11:12:44;;;;;;;19.83;4.32;;;15.80;99.90;;;;;;5053731;28;20442;-61
2023/05/19 11:15:12;;;;;;;13.63;4.03;;;16.00;99.90;;;;;;5074396;28;20481;-60
2023/05/19 11:17:42;;;;;;;14.48;5.15;;;16.20;99.90;;;;;;5067227;28;20239;-61
2023/05/19 11:20:24;;;;;;;14.60;4.72;;;16.40;99.90;;;;;;5064401;28;20055;-62
2023/05/19 11:23:05;;;;;;;22.00;6.00;;;16.50;99.90;;;;;;5052876;28;20045;-61
2023/05/19 11:25:42;;;;;;;13.75;4.63;;;16.60;99.90;;;;;;5065667;28;20052;-61
2023/05/19 11:28:14;;;;;;;15.32;5.30;;;16.60;99.90;;;;;;5063912;28;20049;-61
2023/05/19 11:30:42;;;;;;;18.48;6.43;;;16.70;99.90;;;;;;5063825;28;20216;-61
2023/05/19 11:33:09;;;;;;;17.83;4.63;;;16.60;99.90;;;;;;5063314;28;20041;-60
2023/05/19 11:35:36;;;;;;;14.05;3.97;;;16.70;99.90;;;;;;5064900;28;20052;-61
2023/05/19 11:38:04;;;;;;;9.50;4.45;;;16.80;99.90;;;;;;5063924;28;20164;-60
2023/05/19 11:40:32;;;;;;;10.25;4.47;;;16.70;99.90;;;;;;5065085;28;20076;-60
2023/05/19 11:43:00;;;;;;;9.10;4.40;;;16.80;99.90;;;;;;5065561;28;20071;-61
2023/05/19 11:45:28;;;;;;;16.40;4.45;;;17.00;99.90;;;;;;5055371;28;20101;-62
2023/05/19 11:47:56;;;;;;;12.77;4.18;;;17.10;99.90;;;;;;5050103;28;20045;-62
2023/05/19 11:50:30;;;;;;;;;;;17.30;99.90;;;;;;5052449;28;20052;-62
2023/05/19 11:52:58;;;;;;;12.98;4.65;;;17.40;99.90;;;;;;5064644;28;19931;-61
2023/05/19 11:55:26;;;;;;;12.35;4.25;;;17.60;99.90;;;;;;5064485;28;20041;-61
2023/05/19 11:57:59;;;;;;;10.65;4.07;;;17.70;99.90;;;;;;5066144;28;20132;-60
2023/05/19 12:00:29;;;;;;;9.10;3.95;;;17.70;99.90;;;;;;5067826;28;20118;-61
2023/05/19 12:02:56;;;;;;;7.78;4.43;;;17.70;99.90;;;;;;5070289;28;20056;-61
2023/05/19 12:05:24;;;;;;;9.10;3.45;;;17.70;99.90;;;;;;5075991;28;20731;-61
2023/05/19 12:07:51;;;;;;;8.55;4.25;;;17.60;99.90;;;;;;5072613;28;20051;-61
2023/05/19 12:10:22;;;;;;;12.95;4.65;;;17.70;99.90;;;;;;5075981;28;20060;-61
2023/05/19 12:12:50;;;;;;;12.40;4.45;;;17.80;99.90;;;;;;5072713;28;20056;-62
2023/05/19 12:15:20;;;;;;;18.27;5.65;;;17.70;99.90;;;;;;5071091;28;20082;-60
2023/05/19 12:17:55;;;;;;;9.02;3.90;;;17.90;99.90;;;;;;5080054;28;20507;-60
2023/05/19 12:20:22;;;;;;;10.23;4.25;;;18.10;99.90;;;;;;5061477;28;20163;-61
2023/05/19 12:22:49;;;;;;;7.93;3.80;;;18.30;99.90;;;;;;5067867;28;20044;-61
2023/05/19 12:25:16;;;;;;;13.93;3.95;;;18.40;99.90;;;;;;5067905;28;20072;-61
2023/05/19 12:27:43;;;;;;;7.13;2.95;;;18.40;99.90;;;;;;5067904;28;20048;-61
2023/05/19 12:30:11;;;;;;;7.55;3.60;;;18.40;99.90;;;;;;5055261;28;20552;-61
2023/05/19 12:32:38;;;;;;;8.65;3.47;;;18.30;99.90;;;;;;5067719;28;20052;-61
2023/05/19 12:35:05;;;;;;;8.02;3.17;;;18.20;99.70;;;;;;5067504;28;20048;-61
2023/05/19 12:37:33;;;;;;;10.80;3.67;;;18.20;97.50;;;;;;5067494;28;20495;-62
2023/05/19 12:40:00;;;;;;;11.68;3.72;;;18.30;97.00;;;;;;5056243;28;20619;-60
2023/05/19 12:42:30;;;;;;;10.23;4.45;;;18.30;97.40;;;;;;5067693;28;20094;-61
2023/05/19 12:45:01;;;;;;;9.73;3.67;;;18.20;97.30;;;;;;5067369;28;20639;-61
2023/05/19 12:47:35;;;;;;;7.32;3.53;;;18.30;97.50;;;;;;5067198;28;20391;-62